createdAt,value
2018-02-21T00:00:23.670Z,41.88
2018-02-21T00:01:27.920Z,42.22
2018-02-21T00:02:32.113Z,40.63
2018-02-21T00:03:36.320Z,42.35
2018-02-21T00:04:40.546Z,44.42
2018-02-21T00:05:47.074Z,43.45
2018-02-21T00:06:51.437Z,44.38
2018-02-21T00:07:56.427Z,42.15
2018-02-21T00:09:00.652Z,42.88
2018-02-21T00:10:04.897Z,43.25
2018-02-21T00:11:09.140Z,43.10
2018-02-21T00:12:15.153Z,46.37
2018-02-21T00:13:19.834Z,42.75
2018-02-21T00:14:24.200Z,43.45
2018-02-21T00:15:28.411Z,43.87
2018-02-21T00:16:33.405Z,45.20
2018-02-21T00:17:37.624Z,41.70
2018-02-21T00:18:42.000Z,41.90
2018-02-21T00:19:47.584Z,43.67
2018-02-21T00:20:52.004Z,43.95
2018-02-21T00:21:56.259Z,44.53
2018-02-21T00:23:01.236Z,42.17
2018-02-21T00:24:05.448Z,44.30
2018-02-21T00:25:09.710Z,43.53
2018-02-21T00:26:15.294Z,43.97
2018-02-21T00:27:20.617Z,45.42
2018-02-21T00:28:26.360Z,43.75
2018-02-21T00:29:30.572Z,42.20
2018-02-21T00:30:34.827Z,43.28
2018-02-21T00:31:39.046Z,45.40
2018-02-21T00:32:43.599Z,44.40
2018-02-21T00:33:47.995Z,43.63
2018-02-21T00:34:52.351Z,42.25
2018-02-21T00:35:57.434Z,43.45
2018-02-21T00:37:01.645Z,44.75
2018-02-21T00:38:06.623Z,40.67
2018-02-21T00:39:10.909Z,43.00
2018-02-21T00:40:16.219Z,42.10
2018-02-21T00:41:21.294Z,44.17
2018-02-21T00:42:25.564Z,42.47
2018-02-21T00:43:30.544Z,43.40
2018-02-21T00:44:34.807Z,44.85
2018-02-21T00:45:39.798Z,44.95
2018-02-21T00:46:45.977Z,42.78
2018-02-21T00:47:50.430Z,46.25
2018-02-21T00:48:54.693Z,44.42
2018-02-21T00:49:59.796Z,44.30
2018-02-21T00:51:03.984Z,43.13
2018-02-21T00:52:08.989Z,45.10
2018-02-21T00:53:15.579Z,44.88
2018-02-21T00:54:19.891Z,45.25
2018-02-21T00:55:24.215Z,42.33
2018-02-21T00:56:28.447Z,45.23
2018-02-21T00:57:32.655Z,42.17
2018-02-21T00:58:36.918Z,43.30
2018-02-21T00:59:41.989Z,43.72
2018-02-21T01:00:46.907Z,43.35
2018-02-21T01:01:51.166Z,43.75
2018-02-21T01:02:55.438Z,43.17
2018-02-21T01:03:59.638Z,43.30
2018-02-21T01:05:03.876Z,42.55
2018-02-21T01:06:08.120Z,43.63
2018-02-21T01:07:12.725Z,44.40
2018-02-21T01:08:17.188Z,42.20
2018-02-21T01:09:21.467Z,44.25
2018-02-21T01:10:25.750Z,42.88
2018-02-21T01:11:30.022Z,44.15
2018-02-21T01:12:35.004Z,42.30
2018-02-21T01:13:39.211Z,43.92
2018-02-21T01:14:43.837Z,43.05
2018-02-21T01:15:49.523Z,44.97
2018-02-21T01:16:54.643Z,43.22
2018-02-21T01:17:58.877Z,43.10
2018-02-21T01:19:03.091Z,41.33
2018-02-21T01:20:07.308Z,42.83
2018-02-21T01:21:11.578Z,43.47
2018-02-21T01:22:17.056Z,45.50
2018-02-21T01:23:21.303Z,44.42
2018-02-21T01:24:25.529Z,42.85
2018-02-21T01:25:29.719Z,46.45
2018-02-21T01:26:33.911Z,44.30
2018-02-21T01:27:38.118Z,42.83
2018-02-21T01:28:42.788Z,45.47
2018-02-21T01:29:48.070Z,45.17
2018-02-21T01:30:52.660Z,43.40
2018-02-21T01:31:56.903Z,42.40
2018-02-21T01:33:01.114Z,40.85
2018-02-21T01:34:05.354Z,41.35
2018-02-21T01:35:09.565Z,44.33
2018-02-21T01:36:13.963Z,45.33
2018-02-21T01:37:19.059Z,42.45
2018-02-21T01:38:24.180Z,45.45
2018-02-21T01:39:28.406Z,42.95
2018-02-21T01:40:33.439Z,45.17
2018-02-21T01:41:38.396Z,45.03
2018-02-21T01:42:42.779Z,44.38
2018-02-21T01:43:47.462Z,46.35
2018-02-21T01:44:51.729Z,46.65
2018-02-21T01:45:56.116Z,44.65
2018-02-21T01:47:01.091Z,44.85
2018-02-21T01:48:05.282Z,45.77
2018-02-21T01:49:09.493Z,44.30
2018-02-21T01:50:13.815Z,45.03
2018-02-21T01:51:18.148Z,44.50
2018-02-21T01:52:22.395Z,45.90
2018-02-21T01:53:26.648Z,48.13
2018-02-21T01:54:30.860Z,44.33
2018-02-21T01:55:35.072Z,44.28
2018-02-21T01:56:39.306Z,41.28
2018-02-21T01:57:44.200Z,40.65
2018-02-21T01:58:48.540Z,44.45
2018-02-21T01:59:53.008Z,43.70
2018-02-21T02:00:57.222Z,42.78
2018-02-21T02:02:02.202Z,43.17
2018-02-21T02:03:06.429Z,44.35
2018-02-21T02:04:10.739Z,43.47
2018-02-21T02:05:15.918Z,48.72
2018-02-21T02:06:20.318Z,44.17
2018-02-21T02:07:25.287Z,45.30
2018-02-21T02:08:29.512Z,45.30
2018-02-21T02:09:33.770Z,45.65
2018-02-21T02:10:38.764Z,48.47
2018-02-21T02:11:43.192Z,47.75
2018-02-21T02:12:47.748Z,43.50
2018-02-21T02:13:52.283Z,45.33
2018-02-21T02:14:56.496Z,44.10
2018-02-21T02:16:00.753Z,45.80
2018-02-21T02:17:04.956Z,44.63
2018-02-21T02:18:09.180Z,44.90
2018-02-21T02:19:13.772Z,47.55
2018-02-21T02:20:18.043Z,45.60
2018-02-21T02:21:22.377Z,46.55
2018-02-21T02:22:26.617Z,46.75
2018-02-21T02:23:30.821Z,47.13
2018-02-21T02:24:35.048Z,50.72
2018-02-21T02:25:39.262Z,47.05
2018-02-21T02:26:44.129Z,47.62
2018-02-21T02:27:48.458Z,48.05
2018-02-21T02:28:52.777Z,49.25
2018-02-21T02:29:57.003Z,47.95
2018-02-21T02:31:01.195Z,45.72
2018-02-21T02:32:05.436Z,48.87
2018-02-21T02:33:09.652Z,50.35
2018-02-21T02:34:14.468Z,46.45
2018-02-21T02:35:19.358Z,46.88
2018-02-21T02:36:23.664Z,46.88
2018-02-21T02:37:27.899Z,47.13
2018-02-21T02:38:47.982Z,46.90
2018-02-21T02:40:01.100Z,47.40
2018-02-21T02:41:05.325Z,45.08
2018-02-21T02:42:09.531Z,48.33
2018-02-21T02:43:13.879Z,47.90
2018-02-21T02:44:18.973Z,45.78
2018-02-21T02:45:23.458Z,47.25
2018-02-21T02:46:27.691Z,46.42
2018-02-21T02:47:31.908Z,48.25
2018-02-21T02:48:36.134Z,47.97
2018-02-21T02:49:40.458Z,47.40
2018-02-21T02:50:45.558Z,46.20
2018-02-21T02:51:50.990Z,48.90
2018-02-21T02:52:55.611Z,46.80
2018-02-21T02:53:59.799Z,51.30
2018-02-21T02:55:04.792Z,46.85
2018-02-21T02:56:09.160Z,46.72
2018-02-21T02:57:14.373Z,47.22
2018-02-21T02:58:19.310Z,46.75
2018-02-21T02:59:23.605Z,44.70
2018-02-21T03:00:28.648Z,45.03
2018-02-21T03:01:33.632Z,50.30
2018-02-21T03:02:37.866Z,46.35
2018-02-21T03:03:42.799Z,48.20
2018-02-21T03:04:48.058Z,50.63
2018-02-21T03:05:52.443Z,47.60
2018-02-21T03:06:57.446Z,45.70
2018-02-21T03:08:01.655Z,47.33
2018-02-21T03:09:05.867Z,47.40
2018-02-21T03:10:10.056Z,46.15
2018-02-21T03:11:15.194Z,47.72
2018-02-21T03:12:19.605Z,49.20
2018-02-21T03:13:24.109Z,45.63
2018-02-21T03:14:28.316Z,48.85
2018-02-21T03:15:32.504Z,48.53
2018-02-21T03:16:37.550Z,46.33
2018-02-21T03:17:42.534Z,47.88
2018-02-21T03:18:47.668Z,48.70
2018-02-21T03:19:52.021Z,46.83
2018-02-21T03:20:56.311Z,47.40
2018-02-21T03:22:00.563Z,47.62
2018-02-21T03:23:04.754Z,48.97
2018-02-21T03:24:09.749Z,48.50
2018-02-21T03:25:15.269Z,48.90
2018-02-21T03:26:19.894Z,46.83
2018-02-21T03:27:24.267Z,47.38
2018-02-21T03:28:28.485Z,48.80
2018-02-21T03:29:32.687Z,49.15
2018-02-21T03:30:36.890Z,49.83
2018-02-21T03:31:42.135Z,49.08
2018-02-21T03:32:46.935Z,48.50
2018-02-21T03:33:51.942Z,48.20
2018-02-21T03:34:56.171Z,50.08
2018-02-21T03:36:00.384Z,47.72
2018-02-21T03:37:04.612Z,49.63
2018-02-21T03:38:08.840Z,48.53
2018-02-21T03:39:13.703Z,48.63
2018-02-21T03:40:18.121Z,48.20
2018-02-21T03:41:22.739Z,50.58
2018-02-21T03:42:27.804Z,50.60
2018-02-21T03:43:32.763Z,48.58
2018-02-21T03:44:36.982Z,44.35
2018-02-21T03:45:41.653Z,52.05
2018-02-21T03:46:46.177Z,53.45
2018-02-21T03:47:50.525Z,50.25
2018-02-21T03:48:54.814Z,47.80
2018-02-21T03:49:59.785Z,50.72
2018-02-21T03:51:04.028Z,50.03
2018-02-21T03:52:08.324Z,48.58
2018-02-21T03:53:12.970Z,51.37
2018-02-21T03:54:18.424Z,50.30
2018-02-21T03:55:23.479Z,49.58
2018-02-21T03:56:27.696Z,46.63
2018-02-21T03:57:31.959Z,49.10
2018-02-21T03:58:36.176Z,49.00
2018-02-21T03:59:40.940Z,49.97
2018-02-21T04:00:46.279Z,50.97
2018-02-21T04:01:51.223Z,51.33
2018-02-21T04:02:55.444Z,48.95
2018-02-21T04:03:59.632Z,50.35
2018-02-21T04:05:03.920Z,49.92
2018-02-21T04:06:08.129Z,48.63
2018-02-21T04:07:13.685Z,48.75
2018-02-21T04:08:18.548Z,49.65
2018-02-21T04:09:23.239Z,52.67
2018-02-21T04:10:27.530Z,48.65
2018-02-21T04:11:32.486Z,51.20
2018-02-21T04:12:36.681Z,49.80
2018-02-21T04:13:41.046Z,49.55
2018-02-21T04:14:46.168Z,48.15
2018-02-21T04:15:50.963Z,49.40
2018-02-21T04:16:55.236Z,51.78
2018-02-21T04:17:59.452Z,50.15
2018-02-21T04:19:04.416Z,53.08
2018-02-21T04:20:08.620Z,49.10
2018-02-21T04:21:13.126Z,48.55
2018-02-21T04:22:17.680Z,49.30
2018-02-21T04:23:23.431Z,45.72
2018-02-21T04:24:27.699Z,50.83
2018-02-21T04:25:32.680Z,49.95
2018-02-21T04:26:36.942Z,49.53
2018-02-21T04:27:42.618Z,51.15
2018-02-21T04:28:47.037Z,47.53
2018-02-21T04:29:51.415Z,50.28
2018-02-21T04:30:55.678Z,51.20
2018-02-21T04:31:59.929Z,47.45
2018-02-21T04:33:04.902Z,49.47
2018-02-21T04:34:09.104Z,51.63
2018-02-21T04:35:13.430Z,48.53
2018-02-21T04:36:17.786Z,49.15
2018-02-21T04:37:22.894Z,48.70
2018-02-21T04:38:27.946Z,53.13
2018-02-21T04:39:32.196Z,52.38
2018-02-21T04:40:36.411Z,48.83
2018-02-21T04:41:40.723Z,51.58
2018-02-21T04:42:46.394Z,50.53
2018-02-21T04:43:51.283Z,51.50
2018-02-21T04:44:56.339Z,51.65
2018-02-21T04:46:00.550Z,52.40
2018-02-21T04:47:04.753Z,49.30
2018-02-21T04:48:08.988Z,52.40
2018-02-21T04:49:14.039Z,49.10
2018-02-21T04:50:19.191Z,47.88
2018-02-21T04:51:23.836Z,49.85
2018-02-21T04:52:28.068Z,49.78
2018-02-21T04:53:32.324Z,49.15
2018-02-21T04:54:39.396Z,46.90
2018-02-21T04:55:51.824Z,48.65
2018-02-21T04:57:14.050Z,49.25
2018-02-21T04:59:55.421Z,48.15
2018-02-21T05:00:59.623Z,54.53
2018-02-21T05:02:03.833Z,50.42
2018-02-21T05:03:08.068Z,52.70
2018-02-21T05:04:12.355Z,51.17
2018-02-21T05:05:16.826Z,50.40
2018-02-21T05:06:21.347Z,56.37
2018-02-21T05:07:26.313Z,52.33
2018-02-21T05:08:30.512Z,54.53
2018-02-21T05:09:34.724Z,53.22
2018-02-21T05:10:38.989Z,52.85
2018-02-21T05:11:43.903Z,50.67
2018-02-21T05:12:48.958Z,51.63
2018-02-21T05:13:53.643Z,51.40
2018-02-21T05:14:57.865Z,51.22
2018-02-21T05:16:02.197Z,53.05
2018-02-21T05:17:07.147Z,55.08
2018-02-21T05:18:11.448Z,51.85
2018-02-21T05:19:16.483Z,53.55
2018-02-21T05:20:20.984Z,50.78
2018-02-21T05:21:25.250Z,52.90
2018-02-21T05:22:29.453Z,52.70
2018-02-21T05:23:33.692Z,55.35
2018-02-21T05:24:37.879Z,50.85
2018-02-21T05:25:42.954Z,52.10
2018-02-21T05:26:48.076Z,50.35
2018-02-21T05:27:53.409Z,53.00
2018-02-21T05:28:57.723Z,51.42
2018-02-21T05:30:02.701Z,49.72
2018-02-21T05:31:06.916Z,48.25
2018-02-21T05:32:11.251Z,50.12
2018-02-21T05:33:15.526Z,52.67
2018-02-21T05:34:19.767Z,49.15
2018-02-21T05:35:23.981Z,48.70
2018-02-21T05:36:28.199Z,51.08
2018-02-21T05:37:32.469Z,51.20
2018-02-21T05:38:36.682Z,49.92
2018-02-21T05:39:41.008Z,50.92
2018-02-21T05:40:45.379Z,51.22
2018-02-21T05:41:50.451Z,49.72
2018-02-21T05:42:54.706Z,52.97
2018-02-21T05:43:58.891Z,53.35
2018-02-21T05:45:03.090Z,48.45
2018-02-21T05:46:07.310Z,52.47
2018-02-21T05:47:11.775Z,48.72
2018-02-21T05:48:16.207Z,48.47
2018-02-21T05:49:21.186Z,51.13
2018-02-21T05:50:25.400Z,50.58
2018-02-21T05:51:29.630Z,50.03
2018-02-21T05:52:33.875Z,50.78
2018-02-21T05:53:38.158Z,47.15
2018-02-21T05:54:43.220Z,48.55
2018-02-21T05:55:47.713Z,50.85
2018-02-21T05:56:52.295Z,49.45
2018-02-21T05:57:56.545Z,50.60
2018-02-21T05:59:01.565Z,51.80
2018-02-21T06:00:05.776Z,52.10
2018-02-21T06:01:09.985Z,53.63
2018-02-21T06:02:14.312Z,52.53
2018-02-21T06:03:18.964Z,51.35
2018-02-21T06:04:24.095Z,55.20
2018-02-21T06:05:28.323Z,61.40
2018-02-21T06:06:32.525Z,60.75
2018-02-21T06:07:36.732Z,53.20
2018-02-21T06:08:41.907Z,53.83
2018-02-21T06:09:46.854Z,50.00
2018-02-21T06:10:51.118Z,52.90
2018-02-21T06:11:55.335Z,52.28
2018-02-21T06:12:59.535Z,59.45
2018-02-21T06:14:03.727Z,57.28
2018-02-21T06:15:07.950Z,65.62
2018-02-21T06:16:12.540Z,64.03
2018-02-21T06:17:17.453Z,69.93
2018-02-21T06:18:22.486Z,69.05
2018-02-21T06:19:26.743Z,66.55
2018-02-21T06:20:30.943Z,72.60
2018-02-21T06:21:35.142Z,72.50
2018-02-21T06:22:39.421Z,71.35
2018-02-21T06:23:43.847Z,70.55
2018-02-21T06:24:48.235Z,67.15
2018-02-21T06:25:53.111Z,61.58
2018-02-21T06:26:57.406Z,57.08
2018-02-21T06:28:02.424Z,53.95
2018-02-21T06:29:06.612Z,52.95
2018-02-21T06:30:12.529Z,56.28
2018-02-21T06:31:17.212Z,55.45
2018-02-21T06:32:22.322Z,54.72
2018-02-21T06:33:26.561Z,52.50
2018-02-21T06:34:31.533Z,55.92
2018-02-21T06:35:35.757Z,54.38
2018-02-21T06:36:39.963Z,55.58
2018-02-21T06:37:45.417Z,52.22
2018-02-21T06:38:50.560Z,54.47
2018-02-21T06:39:56.150Z,56.67
2018-02-21T06:41:00.430Z,53.00
2018-02-21T06:42:04.658Z,58.67
2018-02-21T06:43:09.624Z,60.30
2018-02-21T06:44:14.723Z,58.35
2018-02-21T06:45:19.043Z,63.17
2018-02-21T06:46:23.303Z,59.78
2018-02-21T06:47:27.531Z,53.70
2018-02-21T06:48:31.724Z,55.15
2018-02-21T06:49:35.985Z,57.38
2018-02-21T06:50:40.228Z,55.22
2018-02-21T06:51:45.170Z,58.53
2018-02-21T06:52:50.040Z,52.80
2018-02-21T06:53:54.316Z,55.75
2018-02-21T06:54:58.548Z,51.35
2018-02-21T06:56:02.735Z,50.28
2018-02-21T06:57:06.928Z,48.87
2018-02-21T06:58:11.399Z,50.22
2018-02-21T06:59:16.960Z,51.55
2018-02-21T07:00:21.261Z,51.20
2018-02-21T07:01:25.462Z,49.85
2018-02-21T07:02:36.289Z,50.33
2018-02-21T07:03:40.637Z,49.00
2018-02-21T07:04:45.891Z,50.17
2018-02-21T07:05:50.210Z,49.15
2018-02-21T07:06:54.694Z,52.70
2018-02-21T07:07:59.731Z,49.28
2018-02-21T07:09:04.732Z,56.22
2018-02-21T07:10:08.968Z,58.83
2018-02-21T07:11:14.580Z,62.60
2018-02-21T07:12:19.005Z,60.17
2018-02-21T07:13:23.553Z,59.25
2018-02-21T07:14:27.793Z,55.15
2018-02-21T07:15:32.003Z,57.85
2018-02-21T07:16:36.214Z,52.97
2018-02-21T07:17:40.833Z,52.25
2018-02-21T07:18:45.771Z,52.03
2018-02-21T07:19:50.421Z,51.17
2018-02-21T07:20:54.774Z,49.88
2018-02-21T07:21:59.782Z,51.55
2018-02-21T07:23:03.994Z,50.42
2018-02-21T07:24:08.210Z,52.22
2018-02-21T07:25:12.430Z,51.47
2018-02-21T07:26:17.419Z,51.17
2018-02-21T07:27:21.659Z,50.92
2018-02-21T07:28:25.947Z,52.65
2018-02-21T07:29:30.145Z,51.28
2018-02-21T07:30:34.335Z,56.17
2018-02-21T07:31:38.524Z,53.00
2018-02-21T07:32:43.553Z,51.63
2018-02-21T07:33:47.828Z,50.60
2018-02-21T07:34:52.070Z,54.53
2018-02-21T07:35:57.028Z,51.60
2018-02-21T07:37:01.243Z,48.63
2018-02-21T07:38:05.489Z,50.67
2018-02-21T07:39:09.718Z,50.17
2018-02-21T07:40:14.735Z,53.55
2018-02-21T07:41:19.099Z,53.78
2018-02-21T07:42:23.296Z,53.05
2018-02-21T07:43:28.311Z,53.05
2018-02-21T07:44:33.267Z,51.47
2018-02-21T07:45:37.459Z,54.03
2018-02-21T07:46:42.521Z,52.95
2018-02-21T07:47:46.747Z,52.97
2018-02-21T07:48:50.947Z,50.10
2018-02-21T07:49:55.143Z,51.88
2018-02-21T07:50:59.339Z,53.38
2018-02-21T07:52:03.588Z,49.97
2018-02-21T07:53:07.818Z,48.30
2018-02-21T07:54:12.049Z,49.28
2018-02-21T07:55:17.063Z,50.92
2018-02-21T07:56:22.778Z,51.28
2018-02-21T07:57:26.988Z,48.22
2018-02-21T07:58:31.465Z,49.15
2018-02-21T07:59:36.445Z,50.30
2018-02-21T08:00:40.730Z,61.70
2018-02-21T08:01:44.941Z,57.80
2018-02-21T08:02:49.144Z,50.35
2018-02-21T08:03:53.349Z,52.95
2018-02-21T08:04:57.586Z,49.58
2018-02-21T08:06:01.852Z,49.05
2018-02-21T08:07:06.851Z,48.58
2018-02-21T08:08:11.053Z,50.00
2018-02-21T08:09:15.300Z,48.20
2018-02-21T08:10:20.323Z,49.60
2018-02-21T08:11:24.546Z,49.72
2018-02-21T08:12:29.545Z,47.03
2018-02-21T08:13:33.749Z,47.08
2018-02-21T08:14:37.958Z,48.47
2018-02-21T08:15:42.236Z,48.40
2018-02-21T08:16:46.631Z,46.08
2018-02-21T08:17:51.612Z,48.38
2018-02-21T08:18:55.813Z,45.25
2018-02-21T08:20:00.028Z,47.83
2018-02-21T08:21:04.298Z,47.40
2018-02-21T08:22:08.524Z,49.40
2018-02-21T08:23:12.824Z,49.78
2018-02-21T08:24:17.050Z,51.15
2018-02-21T08:25:21.342Z,45.35
2018-02-21T08:26:25.633Z,47.50
2018-02-21T08:27:29.844Z,51.88
2018-02-21T08:28:34.028Z,49.33
2018-02-21T08:29:38.215Z,47.88
2018-02-21T08:30:42.603Z,49.15
2018-02-21T08:31:47.071Z,48.08
2018-02-21T08:32:51.563Z,48.15
2018-02-21T08:33:55.769Z,51.00
2018-02-21T08:34:59.981Z,46.83
2018-02-21T08:36:04.164Z,46.95
2018-02-21T08:37:09.154Z,49.60
2018-02-21T08:38:13.953Z,51.10
2018-02-21T08:39:18.616Z,48.17
2018-02-21T08:40:23.669Z,46.60
2018-02-21T08:41:27.871Z,44.65
2018-02-21T08:42:32.833Z,46.22
2018-02-21T08:43:37.076Z,45.38
2018-02-21T08:44:41.390Z,45.85
2018-02-21T08:45:45.930Z,48.42
2018-02-21T08:46:50.161Z,47.33
2018-02-21T08:47:54.599Z,44.85
2018-02-21T08:48:58.833Z,44.38
2018-02-21T08:50:03.024Z,46.17
2018-02-21T08:51:07.243Z,45.90
2018-02-21T08:52:11.940Z,44.08
2018-02-21T08:53:16.522Z,41.30
2018-02-21T08:54:20.802Z,45.28
2018-02-21T08:55:25.928Z,47.25
2018-02-21T08:56:30.126Z,50.22
2018-02-21T08:57:34.334Z,46.58
2018-02-21T08:58:38.582Z,44.42
2018-02-21T08:59:44.093Z,46.70
2018-02-21T09:00:48.661Z,44.45
2018-02-21T09:01:53.200Z,44.40
2018-02-21T09:02:57.457Z,45.97
2018-02-21T09:04:01.721Z,47.22
2018-02-21T09:05:06.695Z,42.22
2018-02-21T09:06:11.656Z,45.45
2018-02-21T09:07:16.693Z,44.85
2018-02-21T09:08:21.168Z,46.53
2018-02-21T09:09:25.421Z,44.90
2018-02-21T09:10:29.685Z,42.78
2018-02-21T09:11:33.879Z,43.63
2018-02-21T09:12:38.072Z,44.47
2018-02-21T09:13:44.323Z,45.92
2018-02-21T09:14:49.607Z,47.20
2018-02-21T09:15:54.030Z,44.50
2018-02-21T09:16:58.234Z,43.03
2018-02-21T09:18:02.430Z,42.13
2018-02-21T09:19:06.612Z,40.20
2018-02-21T09:20:11.651Z,43.35
2018-02-21T09:21:17.414Z,43.60
2018-02-21T09:22:21.800Z,42.45
2018-02-21T09:23:26.091Z,42.58
2018-02-21T09:24:30.422Z,42.83
2018-02-21T09:25:35.382Z,45.30
2018-02-21T09:26:39.574Z,41.20
2018-02-21T09:27:46.029Z,43.00
2018-02-21T09:28:50.386Z,42.62
2018-02-21T09:29:54.748Z,41.95
2018-02-21T09:30:58.935Z,41.45
2018-02-21T09:32:03.121Z,40.83
2018-02-21T09:33:07.535Z,42.83
2018-02-21T09:34:12.140Z,42.15
2018-02-21T09:35:18.466Z,41.88
2018-02-21T09:36:24.045Z,40.38
2018-02-21T09:37:28.245Z,40.08
2018-02-21T09:38:33.221Z,40.70
2018-02-21T09:39:37.456Z,41.25
2018-02-21T09:40:42.019Z,43.72
2018-02-21T09:41:47.328Z,43.47
2018-02-21T09:42:51.764Z,38.08
2018-02-21T09:43:56.099Z,39.05
2018-02-21T09:45:00.319Z,41.90
2018-02-21T09:46:04.492Z,40.53
2018-02-21T09:47:08.678Z,39.13
2018-02-21T09:48:15.007Z,40.33
2018-02-21T09:49:19.418Z,37.10
2018-02-21T09:50:23.823Z,37.08
2018-02-21T09:51:28.021Z,36.70
2018-02-21T09:52:32.215Z,41.22
2018-02-21T09:53:36.402Z,42.10
2018-02-21T09:54:42.121Z,40.10
2018-02-21T09:55:46.976Z,39.75
2018-02-21T09:56:52.058Z,41.70
2018-02-21T09:57:57.095Z,40.58
2018-02-21T09:59:01.290Z,40.40
2018-02-21T10:00:05.468Z,39.17
2018-02-21T10:01:09.725Z,37.72
2018-02-21T10:02:15.495Z,37.85
2018-02-21T10:03:19.873Z,39.60
2018-02-21T10:04:24.141Z,37.33
2018-02-21T10:05:28.324Z,38.95
2018-02-21T10:06:32.565Z,40.58
2018-02-21T10:07:37.555Z,39.58
2018-02-21T10:08:42.492Z,38.75
2018-02-21T10:09:47.574Z,38.60
2018-02-21T10:10:51.908Z,39.22
2018-02-21T10:11:56.880Z,39.47
2018-02-21T10:13:01.091Z,37.20
2018-02-21T10:14:05.290Z,38.60
2018-02-21T10:15:09.544Z,38.45
2018-02-21T10:16:15.637Z,39.50
2018-02-21T10:17:19.944Z,36.75
2018-02-21T10:18:24.225Z,36.85
2018-02-21T10:19:28.414Z,35.90
2018-02-21T10:20:32.583Z,36.50
2018-02-21T10:21:36.817Z,36.97
2018-02-21T10:22:41.074Z,37.13
2018-02-21T10:23:47.000Z,36.95
2018-02-21T10:24:51.331Z,32.80
2018-02-21T10:25:55.588Z,34.97
2018-02-21T10:26:59.811Z,37.03
2018-02-21T10:28:04.014Z,34.72
2018-02-21T10:29:08.211Z,36.90
2018-02-21T10:30:12.937Z,37.93
2018-02-21T10:31:18.284Z,37.08
2018-02-21T10:32:22.644Z,37.03
2018-02-21T10:33:26.854Z,34.38
2018-02-21T10:34:31.035Z,34.83
2018-02-21T10:35:35.219Z,32.17
2018-02-21T10:36:39.399Z,33.20
2018-02-21T10:37:44.104Z,35.07
2018-02-21T10:38:48.957Z,34.45
2018-02-21T10:39:53.679Z,36.63
2018-02-21T10:40:57.889Z,36.95
2018-02-21T10:42:02.080Z,36.17
2018-02-21T10:43:06.289Z,36.10
2018-02-21T10:44:10.515Z,36.00
2018-02-21T10:45:15.254Z,34.00
2018-02-21T10:46:19.746Z,33.30
2018-02-21T10:47:24.082Z,35.60
2018-02-21T10:48:28.341Z,33.00
2018-02-21T10:49:32.520Z,33.78
2018-02-21T10:50:36.743Z,33.80
2018-02-21T10:51:40.968Z,34.60
2018-02-21T10:52:46.043Z,33.50
2018-02-21T10:53:50.570Z,32.60
2018-02-21T10:54:55.057Z,31.15
2018-02-21T10:56:00.004Z,33.22
2018-02-21T10:57:04.204Z,34.55
2018-02-21T10:58:08.403Z,34.50
2018-02-21T10:59:14.473Z,33.38
2018-02-21T11:00:24.387Z,31.90
2018-02-21T11:01:28.571Z,36.57
2018-02-21T11:02:32.770Z,33.90
2018-02-21T11:03:36.939Z,30.33
2018-02-21T11:04:42.189Z,33.15
2018-02-21T11:05:47.605Z,30.12
2018-02-21T11:06:51.991Z,30.10
2018-02-21T11:07:56.670Z,32.65
2018-02-21T11:09:00.870Z,32.87
2018-02-21T11:10:05.082Z,29.83
2018-02-21T11:11:09.324Z,30.57
2018-02-21T11:12:15.370Z,32.83
2018-02-21T11:13:19.671Z,32.42
2018-02-21T11:14:23.943Z,29.98
2018-02-21T11:15:28.155Z,31.57
2018-02-21T11:16:33.122Z,29.37
2018-02-21T11:17:37.309Z,29.98
2018-02-21T11:18:42.671Z,29.00
2018-02-21T11:19:47.840Z,30.58
2018-02-21T11:20:52.379Z,29.60
2018-02-21T11:21:56.608Z,32.30
2018-02-21T11:23:01.543Z,28.13
2018-02-21T11:24:05.720Z,30.33
2018-02-21T11:25:09.938Z,28.30
2018-02-21T11:26:15.405Z,28.90
2018-02-21T11:27:21.551Z,31.43
2018-02-21T11:28:25.811Z,28.03
2018-02-21T11:29:29.985Z,29.63
2018-02-21T11:30:34.978Z,27.87
2018-02-21T11:31:39.180Z,30.70
2018-02-21T11:32:44.662Z,28.83
2018-02-21T11:33:49.152Z,29.70
2018-02-21T11:34:54.176Z,27.27
2018-02-21T11:35:58.390Z,25.87
2018-02-21T11:37:02.574Z,27.70
2018-02-21T11:38:06.828Z,28.87
2018-02-21T11:39:11.971Z,29.50
2018-02-21T11:40:16.224Z,26.43
2018-02-21T11:41:20.680Z,28.63
2018-02-21T11:42:24.886Z,30.67
2018-02-21T11:43:29.112Z,29.20
2018-02-21T11:44:34.062Z,28.40
2018-02-21T11:45:38.231Z,28.30
2018-02-21T11:46:42.915Z,25.17
2018-02-21T11:47:48.145Z,28.67
2018-02-21T11:48:52.536Z,27.97
2018-02-21T11:49:56.747Z,26.70
2018-02-21T11:51:01.707Z,27.83
2018-02-21T11:52:05.912Z,28.33
2018-02-21T11:53:10.103Z,28.90
2018-02-21T11:54:14.640Z,29.20
2018-02-21T11:55:19.152Z,28.60
2018-02-21T11:56:23.439Z,28.80
2018-02-21T11:57:27.686Z,26.67
2018-02-21T11:58:31.873Z,29.70
2018-02-21T11:59:36.115Z,27.60
2018-02-21T12:00:40.314Z,29.10
2018-02-21T12:01:46.470Z,26.60
2018-02-21T12:02:50.844Z,27.33
2018-02-21T12:03:55.250Z,27.90
2018-02-21T12:04:59.485Z,26.87
2018-02-21T12:06:03.675Z,28.30
2018-02-21T12:07:08.634Z,29.67
2018-02-21T12:08:13.125Z,26.63
2018-02-21T12:09:17.997Z,27.70
2018-02-21T12:10:24.101Z,28.07
2018-02-21T12:11:29.043Z,28.87
2018-02-21T12:12:34.494Z,27.23
2018-02-21T12:13:38.678Z,27.47
2018-02-21T12:14:45.225Z,29.93
2018-02-21T12:15:50.611Z,27.73
2018-02-21T12:16:55.056Z,28.47
2018-02-21T12:17:59.227Z,30.00
2018-02-21T12:19:03.417Z,26.43
2018-02-21T12:20:08.395Z,28.90
2018-02-21T12:21:13.420Z,30.70
2018-02-21T12:22:17.983Z,29.90
2018-02-21T12:23:23.832Z,26.37
2018-02-21T12:24:28.830Z,28.03
2018-02-21T12:25:33.022Z,26.03
2018-02-21T12:26:37.196Z,26.87
2018-02-21T12:27:42.629Z,28.87
2018-02-21T12:28:48.372Z,29.63
2018-02-21T12:29:53.445Z,29.58
2018-02-21T12:30:57.659Z,26.33
2018-02-21T12:32:03.240Z,25.83
2018-02-21T12:33:07.415Z,26.60
2018-02-21T12:34:12.327Z,27.63
2018-02-21T12:35:17.746Z,27.27
2018-02-21T12:36:22.731Z,26.27
2018-02-21T12:37:27.736Z,27.43
2018-02-21T12:38:31.984Z,27.17
2018-02-21T12:39:36.663Z,23.87
2018-02-21T12:40:47.213Z,26.27
2018-02-21T12:41:51.941Z,27.57
2018-02-21T12:42:56.167Z,27.37
2018-02-21T12:44:00.414Z,27.33
2018-02-21T12:45:04.611Z,25.70
2018-02-21T12:46:08.801Z,25.63
2018-02-21T12:47:13.786Z,24.70
2018-02-21T12:48:19.566Z,22.00
2018-02-21T12:49:23.875Z,23.43
2018-02-21T12:50:28.069Z,25.00
2018-02-21T12:51:33.022Z,25.97
2018-02-21T12:52:37.211Z,22.98
2018-02-21T12:53:42.414Z,28.23
2018-02-21T12:54:47.109Z,28.27
2018-02-21T12:55:51.321Z,26.87
2018-02-21T12:56:55.757Z,25.13
2018-02-21T12:57:59.947Z,24.93
2018-02-21T12:59:04.137Z,23.90
2018-02-21T13:00:08.468Z,22.40
2018-02-21T13:01:13.589Z,21.17
2018-02-21T13:02:18.171Z,22.90
2018-02-21T13:03:22.476Z,24.03
2018-02-21T13:04:26.723Z,22.77
2018-02-21T13:05:30.934Z,24.02
2018-02-21T13:06:35.111Z,20.88
2018-02-21T13:07:40.068Z,20.47
2018-02-21T13:08:45.577Z,21.53
2018-02-21T13:09:50.474Z,21.62
2018-02-21T13:10:54.866Z,22.17
2018-02-21T13:11:59.045Z,23.07
2018-02-21T13:13:03.995Z,24.20
2018-02-21T13:14:08.176Z,19.27
2018-02-21T13:15:13.441Z,20.27
2018-02-21T13:16:17.834Z,23.43
2018-02-21T13:17:22.030Z,21.87
2018-02-21T13:18:26.272Z,22.87
2018-02-21T13:19:31.195Z,20.30
2018-02-21T13:20:35.411Z,20.80
2018-02-21T13:21:39.616Z,20.23
2018-02-21T13:22:44.585Z,19.23
2018-02-21T13:23:49.118Z,21.10
2018-02-21T13:24:53.408Z,20.03
2018-02-21T13:25:57.642Z,22.70
2018-02-21T13:27:01.832Z,20.10
2018-02-21T13:28:06.050Z,21.52
2018-02-21T13:29:10.279Z,20.70
2018-02-21T13:30:15.745Z,21.30
2018-02-21T13:31:20.262Z,20.23
2018-02-21T13:32:25.238Z,23.23
2018-02-21T13:33:29.410Z,21.70
2018-02-21T13:34:34.363Z,21.80
2018-02-21T13:35:38.577Z,22.40
2018-02-21T13:36:43.172Z,24.50
2018-02-21T13:37:47.873Z,23.48
2018-02-21T13:38:52.884Z,23.00
2018-02-21T13:39:57.084Z,21.97
2018-02-21T13:41:01.290Z,24.13
2018-02-21T13:42:05.529Z,22.23
2018-02-21T13:43:10.491Z,21.57
2018-02-21T13:44:15.443Z,26.70
2018-02-21T13:45:20.502Z,23.40
2018-02-21T13:46:24.764Z,24.73
2018-02-21T13:47:29.001Z,24.30
2018-02-21T13:48:33.183Z,24.57
2018-02-21T13:49:37.361Z,24.40
2018-02-21T13:50:43.220Z,26.17
2018-02-21T13:51:47.886Z,24.83
2018-02-21T13:52:52.230Z,23.43
2018-02-21T13:53:56.440Z,24.30